createdAt,value
2018-02-25T00:00:47.606Z,-5.61
2018-02-25T00:01:47.452Z,-5.72
2018-02-25T00:03:40.303Z,-5.59
2018-02-25T00:04:40.202Z,-5.72
2018-02-25T00:06:33.061Z,-5.71
2018-02-25T00:07:32.953Z,-5.77
2018-02-25T00:09:25.809Z,-5.70
2018-02-25T00:10:25.686Z,-5.70
2018-02-25T00:12:18.592Z,-5.71
2018-02-25T00:13:18.439Z,-5.77
2018-02-25T00:15:11.333Z,-5.71
2018-02-25T00:16:11.188Z,-5.65
2018-02-25T00:18:04.085Z,-5.75
2018-02-25T00:19:03.991Z,-5.79
2018-02-25T00:20:56.838Z,-5.72
2018-02-25T00:21:56.694Z,-5.78
2018-02-25T00:23:49.585Z,-5.77
2018-02-25T00:24:49.438Z,-5.72
2018-02-25T00:26:42.314Z,-5.89
2018-02-25T00:27:42.192Z,-5.85
2018-02-25T00:29:35.065Z,-5.86
2018-02-25T00:30:34.940Z,-5.92
2018-02-25T00:32:27.800Z,-5.90
2018-02-25T00:33:27.695Z,-5.96
2018-02-25T00:35:20.646Z,-6.04
2018-02-25T00:36:20.442Z,-6.04
2018-02-25T00:38:13.299Z,-6.07
2018-02-25T00:39:13.188Z,-6.13
2018-02-25T00:41:06.787Z,-5.98
2018-02-25T00:42:06.646Z,-5.92
2018-02-25T00:43:59.513Z,-6.00
2018-02-25T00:44:59.400Z,-6.00
2018-02-25T00:46:52.295Z,-6.07
2018-02-25T00:47:52.149Z,-6.04
2018-02-25T00:49:45.008Z,-6.03
2018-02-25T00:50:44.899Z,-6.06
2018-02-25T00:52:37.785Z,-6.10
2018-02-25T00:53:37.665Z,-6.06
2018-02-25T00:55:30.508Z,-6.16
2018-02-25T00:56:30.416Z,-6.10
2018-02-25T00:58:23.275Z,-6.13
2018-02-25T00:59:23.156Z,-6.14
2018-02-25T01:01:16.009Z,-6.13
2018-02-25T01:02:15.905Z,-6.16
2018-02-25T01:04:08.774Z,-6.11
2018-02-25T01:05:08.660Z,-6.16
2018-02-25T01:07:01.580Z,-6.16
2018-02-25T01:08:01.401Z,-6.13
2018-02-25T01:09:54.271Z,-6.11
2018-02-25T01:10:54.153Z,-6.16
2018-02-25T01:12:47.669Z,-6.25
2018-02-25T01:13:47.410Z,-6.28
2018-02-25T01:15:40.281Z,-6.24
2018-02-25T01:16:40.165Z,-6.24
2018-02-25T01:18:33.054Z,-6.35
2018-02-25T01:19:32.921Z,-6.21
2018-02-25T01:21:25.796Z,-6.27
2018-02-25T01:22:25.682Z,-6.37
2018-02-25T01:24:18.530Z,-6.34
2018-02-25T01:25:18.427Z,-6.37
2018-02-25T01:27:11.284Z,-6.39
2018-02-25T01:28:11.168Z,-6.37
2018-02-25T01:30:04.042Z,-6.31
2018-02-25T01:31:03.924Z,-6.39
2018-02-25T01:32:56.797Z,-6.29
2018-02-25T01:33:56.681Z,-6.21
2018-02-25T01:35:50.061Z,-6.24
2018-02-25T01:36:49.919Z,-6.25
2018-02-25T01:38:42.953Z,-6.31
2018-02-25T01:39:42.770Z,-6.37
2018-02-25T01:41:35.626Z,-6.32
2018-02-25T01:42:35.513Z,-6.46
2018-02-25T01:44:28.410Z,-6.40
2018-02-25T01:45:28.288Z,-6.37
2018-02-25T01:47:21.123Z,-6.32
2018-02-25T01:48:21.018Z,-6.34
2018-02-25T01:50:13.891Z,-6.37
2018-02-25T01:51:13.772Z,-6.39
2018-02-25T01:53:06.642Z,-6.40
2018-02-25T01:54:06.516Z,-6.42
2018-02-25T01:55:59.962Z,-6.40
2018-02-25T01:56:59.308Z,-6.40
2018-02-25T01:58:52.130Z,-6.45
2018-02-25T01:59:52.023Z,-6.52
2018-02-25T02:01:45.091Z,-6.37
2018-02-25T02:02:44.974Z,-6.49
2018-02-25T02:04:37.870Z,-6.45
2018-02-25T02:05:37.727Z,-6.45
2018-02-25T02:07:30.626Z,-6.47
2018-02-25T02:08:30.464Z,-6.45
2018-02-25T02:10:23.335Z,-6.45
2018-02-25T02:11:23.225Z,-6.42
2018-02-25T02:13:16.134Z,-6.49
2018-02-25T02:14:15.977Z,-6.49
2018-02-25T02:16:08.836Z,-6.50
2018-02-25T02:17:08.742Z,-6.45
2018-02-25T02:19:02.726Z,-6.61
2018-02-25T02:20:02.501Z,-6.71
2018-02-25T02:21:55.907Z,-6.65
2018-02-25T02:22:55.759Z,-6.65
2018-02-25T02:24:51.744Z,-6.61
2018-02-25T02:25:51.484Z,-6.61
2018-02-25T02:27:44.761Z,-6.61
2018-02-25T02:28:44.640Z,-6.62
2018-02-25T02:30:42.733Z,-6.68
2018-02-25T02:31:42.332Z,-6.79
2018-02-25T02:33:35.164Z,-6.71
2018-02-25T02:34:35.052Z,-6.75
2018-02-25T02:36:27.960Z,-6.71
2018-02-25T02:37:27.796Z,-6.79
2018-02-25T02:39:20.659Z,-6.74
2018-02-25T02:40:20.546Z,-6.74
2018-02-25T02:42:13.431Z,-6.68
2018-02-25T02:43:13.298Z,-6.71
2018-02-25T02:45:06.675Z,-6.72
2018-02-25T02:46:06.556Z,-6.75
2018-02-25T02:47:59.451Z,-6.71
2018-02-25T02:48:59.316Z,-6.75
2018-02-25T02:50:52.068Z,-6.69
2018-02-25T02:51:51.957Z,-6.71
2018-02-25T02:53:44.750Z,-6.71
2018-02-25T02:54:44.611Z,-6.74
2018-02-25T02:56:37.976Z,-6.74
2018-02-25T02:57:37.862Z,-6.80
2018-02-25T02:59:30.736Z,-6.83
2018-02-25T03:00:30.625Z,-6.79
2018-02-25T03:02:23.474Z,-6.82
2018-02-25T03:03:23.374Z,-6.75
2018-02-25T03:05:16.338Z,-6.82
2018-02-25T03:06:16.214Z,-6.82
2018-02-25T03:08:09.082Z,-6.85
2018-02-25T03:09:08.968Z,-6.85
2018-02-25T03:11:01.887Z,-6.86
2018-02-25T03:12:01.711Z,-6.85
2018-02-25T03:13:55.093Z,-6.77
2018-02-25T03:14:55.100Z,-6.82
2018-02-25T03:16:48.903Z,-6.83
2018-02-25T03:17:48.754Z,-6.89
2018-02-25T03:19:41.519Z,-6.95
2018-02-25T03:20:41.427Z,-6.90
2018-02-25T03:22:34.363Z,-6.89
2018-02-25T03:23:34.143Z,-6.89
2018-02-25T03:25:27.018Z,-6.83
2018-02-25T03:26:26.897Z,-6.85
2018-02-25T03:28:19.772Z,-6.90
2018-02-25T03:29:19.648Z,-6.90
2018-02-25T03:31:12.508Z,-6.97
2018-02-25T03:32:12.391Z,-7.07
2018-02-25T03:34:05.265Z,-6.97
2018-02-25T03:35:05.149Z,-6.95
2018-02-25T03:36:58.006Z,-7.04
2018-02-25T03:37:57.893Z,-7.10
2018-02-25T03:39:51.031Z,-7.16
2018-02-25T03:40:50.657Z,-7.21
2018-02-25T03:42:43.526Z,-7.16
2018-02-25T03:43:43.387Z,-7.19
2018-02-25T03:45:36.355Z,-7.21
2018-02-25T03:46:36.138Z,-7.25
2018-02-25T03:48:29.040Z,-7.19
2018-02-25T03:49:28.899Z,-7.25
2018-02-25T03:51:21.963Z,-7.26
2018-02-25T03:52:21.840Z,-7.18
2018-02-25T03:54:14.702Z,-7.24
2018-02-25T03:55:14.596Z,-7.25
2018-02-25T03:57:07.496Z,-7.22
2018-02-25T03:58:07.352Z,-7.26
2018-02-25T04:00:00.208Z,-7.32
2018-02-25T04:01:00.094Z,-7.31
2018-02-25T04:02:52.991Z,-7.26
2018-02-25T04:03:52.840Z,-7.24
2018-02-25T04:05:45.710Z,-7.32
2018-02-25T04:06:45.597Z,-7.28
2018-02-25T04:08:38.980Z,-7.37
2018-02-25T04:09:38.856Z,-7.39
2018-02-25T04:11:31.762Z,-7.49
2018-02-25T04:12:31.635Z,-7.42
2018-02-25T04:14:24.516Z,-7.46
2018-02-25T04:15:24.353Z,-7.53
2018-02-25T04:17:17.227Z,-7.57
2018-02-25T04:18:17.164Z,-7.57
2018-02-25T04:20:10.515Z,-7.54
2018-02-25T04:21:10.422Z,-7.61
2018-02-25T04:23:03.281Z,-7.61
2018-02-25T04:24:03.182Z,-7.64
2018-02-25T04:25:56.125Z,-7.67
2018-02-25T04:26:56.204Z,-7.63
2018-02-25T04:28:48.838Z,-7.68
2018-02-25T04:29:48.723Z,-7.63
2018-02-25T04:31:41.650Z,-7.63
2018-02-25T04:32:41.463Z,-7.67
2018-02-25T04:34:35.345Z,-7.68
2018-02-25T04:35:35.249Z,-7.70
2018-02-25T04:37:28.108Z,-7.74
2018-02-25T04:38:28.010Z,-7.81
2018-02-25T04:40:20.842Z,-7.81
2018-02-25T04:41:20.741Z,-7.79
2018-02-25T04:43:14.083Z,-7.78
2018-02-25T04:44:13.482Z,-7.81
2018-02-25T04:46:06.367Z,-7.84
2018-02-25T04:47:06.233Z,-7.84
2018-02-25T04:48:59.017Z,-7.75
2018-02-25T04:49:58.901Z,-7.81
2018-02-25T04:51:51.646Z,-7.81
2018-02-25T04:52:51.559Z,-7.84
2018-02-25T04:54:44.825Z,-7.85
2018-02-25T04:55:44.702Z,-7.79
2018-02-25T04:57:37.456Z,-7.84
2018-02-25T04:58:37.336Z,-7.78
2018-02-25T05:00:30.625Z,-7.79
2018-02-25T05:01:30.491Z,-7.88
2018-02-25T05:03:23.870Z,-7.88
2018-02-25T05:04:23.757Z,-7.86
2018-02-25T05:06:16.636Z,-7.93
2018-02-25T05:07:16.505Z,-7.90
2018-02-25T05:09:09.889Z,-7.90
2018-02-25T05:10:09.775Z,-7.90
2018-02-25T05:12:02.686Z,-7.88
2018-02-25T05:13:02.564Z,-7.86
2018-02-25T05:14:55.390Z,-7.95
2018-02-25T05:15:55.351Z,-7.96
2018-02-25T05:17:48.154Z,-7.95
2018-02-25T05:18:48.015Z,-7.97
2018-02-25T05:20:41.819Z,-7.95
2018-02-25T05:21:41.696Z,-7.99
2018-02-25T05:23:34.580Z,-8.01
2018-02-25T05:24:34.448Z,-7.93
2018-02-25T05:26:27.295Z,-8.01
2018-02-25T05:27:27.209Z,-8.03
2018-02-25T05:29:20.143Z,-7.85
2018-02-25T05:30:19.932Z,-7.95
2018-02-25T05:32:12.801Z,-7.97
2018-02-25T05:33:12.691Z,-7.99
2018-02-25T05:35:05.554Z,-8.07
2018-02-25T05:36:05.429Z,-7.92
2018-02-25T05:37:58.333Z,-8.07
2018-02-25T05:38:58.244Z,-8.01
2018-02-25T05:40:51.068Z,-8.03
2018-02-25T05:41:50.933Z,-8.04
2018-02-25T05:43:43.993Z,-8.03
2018-02-25T05:44:43.892Z,-8.05
2018-02-25T05:46:36.675Z,-8.15
2018-02-25T05:47:36.539Z,-8.14
2018-02-25T05:49:29.512Z,-8.16
2018-02-25T05:50:29.462Z,-8.11
2018-02-25T05:52:22.269Z,-8.11
2018-02-25T05:53:22.158Z,-8.22
2018-02-25T05:55:15.001Z,-8.21
2018-02-25T05:56:14.887Z,-8.21
2018-02-25T05:58:07.772Z,-8.11
2018-02-25T05:59:07.643Z,-8.16
2018-02-25T06:01:00.554Z,-8.19
2018-02-25T06:02:00.410Z,-8.15
2018-02-25T06:03:53.256Z,-8.16
2018-02-25T06:04:53.137Z,-8.15
2018-02-25T06:06:46.524Z,-8.15
2018-02-25T06:07:46.397Z,-8.18
2018-02-25T06:09:39.270Z,-8.14
2018-02-25T06:10:39.144Z,-8.04
2018-02-25T06:12:32.052Z,-8.16
2018-02-25T06:13:31.959Z,-8.08
2018-02-25T06:15:25.334Z,-8.08
2018-02-25T06:16:24.667Z,-8.11
2018-02-25T06:18:17.503Z,-8.18
2018-02-25T06:19:17.398Z,-8.19
2018-02-25T06:21:10.298Z,-8.22
2018-02-25T06:22:10.143Z,-8.22
2018-02-25T06:24:03.007Z,-8.16
2018-02-25T06:25:02.897Z,-8.22
2018-02-25T06:26:55.765Z,-8.26
2018-02-25T06:27:55.646Z,-8.24
2018-02-25T06:29:48.512Z,-8.18
2018-02-25T06:30:48.413Z,-8.15
2018-02-25T06:32:41.794Z,-8.18
2018-02-25T06:33:41.658Z,-8.12
2018-02-25T06:35:34.513Z,-8.19
2018-02-25T06:36:34.443Z,-8.16
2018-02-25T06:38:27.284Z,-8.12
2018-02-25T06:39:27.147Z,-8.15
2018-02-25T06:41:20.022Z,-8.15
2018-02-25T06:42:19.909Z,-8.14
2018-02-25T06:44:12.775Z,-8.14
2018-02-25T06:45:12.649Z,-8.11
2018-02-25T06:47:05.615Z,-8.08
2018-02-25T06:48:05.510Z,-7.97
2018-02-25T06:49:58.378Z,-8.01
2018-02-25T06:50:58.262Z,-8.04
2018-02-25T06:52:51.031Z,-7.92
2018-02-25T06:53:50.904Z,-7.95
2018-02-25T06:55:43.689Z,-7.92
2018-02-25T06:56:43.546Z,-7.95
2018-02-25T06:58:36.431Z,-7.92
2018-02-25T06:59:36.324Z,-7.96
2018-02-25T07:01:29.272Z,-7.93
2018-02-25T07:02:29.183Z,-7.88
2018-02-25T07:04:21.931Z,-7.84
2018-02-25T07:05:21.797Z,-7.92
2018-02-25T07:07:14.581Z,-7.90
2018-02-25T07:08:14.444Z,-7.81
2018-02-25T07:10:07.204Z,-7.81
2018-02-25T07:11:07.099Z,-7.90
2018-02-25T07:12:59.987Z,-7.75
2018-02-25T07:13:59.784Z,-7.76
2018-02-25T07:15:52.493Z,-7.63
2018-02-25T07:16:52.394Z,-7.67
2018-02-25T07:18:45.277Z,-7.57
2018-02-25T07:19:45.156Z,-7.67
2018-02-25T07:21:37.903Z,-7.60
2018-02-25T07:22:37.783Z,-7.61
2018-02-25T07:24:30.559Z,-7.55
2018-02-25T07:25:30.436Z,-7.55
2018-02-25T07:27:23.397Z,-7.54
2018-02-25T07:28:23.277Z,-7.40
2018-02-25T07:30:16.068Z,-7.39
2018-02-25T07:31:15.925Z,-7.42
2018-02-25T07:33:08.764Z,-7.40
2018-02-25T07:34:08.575Z,-7.37
2018-02-25T07:36:01.352Z,-7.35
2018-02-25T07:37:01.222Z,-7.37
2018-02-25T07:38:53.984Z,-7.39
2018-02-25T07:39:53.882Z,-7.36
2018-02-25T07:41:47.151Z,-7.25
2018-02-25T07:42:47.030Z,-7.25
2018-02-25T07:44:40.342Z,-7.16
2018-02-25T07:45:40.189Z,-7.15
2018-02-25T07:47:32.963Z,-7.13
2018-02-25T07:48:32.838Z,-7.06
2018-02-25T07:50:25.609Z,-7.11
2018-02-25T07:51:25.537Z,-7.06
2018-02-25T07:53:18.264Z,-7.06
2018-02-25T07:54:18.126Z,-6.98
2018-02-25T07:56:10.989Z,-6.92
2018-02-25T07:57:10.909Z,-6.83
2018-02-25T07:59:03.647Z,-6.80
2018-02-25T08:00:03.538Z,-6.83
2018-02-25T08:01:56.312Z,-6.85
2018-02-25T08:02:56.190Z,-6.86
2018-02-25T08:04:48.956Z,-6.77
2018-02-25T08:05:48.830Z,-6.74
2018-02-25T08:07:43.534Z,-6.67
2018-02-25T08:08:43.435Z,-6.68
2018-02-25T08:10:36.276Z,-6.69
2018-02-25T08:11:36.086Z,-6.64
2018-02-25T08:13:28.958Z,-6.62
2018-02-25T08:14:28.911Z,-6.55
2018-02-25T08:16:21.798Z,-6.53
2018-02-25T08:17:21.561Z,-6.56
2018-02-25T08:19:16.036Z,-6.46
2018-02-25T08:20:15.856Z,-6.47
2018-02-25T08:22:08.755Z,-6.52
2018-02-25T08:23:08.572Z,-6.35
2018-02-25T08:25:01.372Z,-6.35
2018-02-25T08:26:01.292Z,-6.35
2018-02-25T08:27:53.958Z,-6.21
2018-02-25T08:28:53.790Z,-6.22
2018-02-25T08:30:47.122Z,-6.16
2018-02-25T08:31:47.105Z,-6.21
2018-02-25T08:33:39.708Z,-6.03
2018-02-25T08:34:39.629Z,-6.06
2018-02-25T08:36:32.405Z,-5.85
2018-02-25T08:37:32.394Z,-5.99
2018-02-25T08:39:25.014Z,-6.08
2018-02-25T08:40:24.891Z,-6.04
2018-02-25T08:42:17.682Z,-5.90
2018-02-25T08:43:17.535Z,-5.90
2018-02-25T08:45:10.323Z,-5.65
2018-02-25T08:46:10.185Z,-5.63
2018-02-25T08:48:02.970Z,-5.57
2018-02-25T08:49:02.861Z,-5.49
2018-02-25T08:50:55.585Z,-5.47
2018-02-25T08:51:55.483Z,-5.43
2018-02-25T08:53:48.286Z,-5.43
2018-02-25T08:54:48.125Z,-5.36
2018-02-25T08:56:41.537Z,-5.41
2018-02-25T08:57:41.384Z,-5.29
2018-02-25T08:59:34.345Z,-5.32
2018-02-25T09:00:34.138Z,-5.36
2018-02-25T09:02:26.898Z,-5.35
2018-02-25T09:03:26.823Z,-5.18
2018-02-25T09:05:19.566Z,-5.13
2018-02-25T09:06:19.436Z,-5.09
2018-02-25T09:08:12.192Z,-5.09
2018-02-25T09:09:12.087Z,-4.96
2018-02-25T09:11:04.956Z,-4.77
2018-02-25T09:12:04.830Z,-4.73
2018-02-25T09:13:57.796Z,-4.62
2018-02-25T09:14:57.676Z,-4.52
2018-02-25T09:16:50.467Z,-4.57
2018-02-25T09:17:50.349Z,-4.52
2018-02-25T09:19:43.081Z,-4.48
2018-02-25T09:20:42.980Z,-4.48
2018-02-25T09:22:35.782Z,-4.48
2018-02-25T09:23:35.627Z,-4.46
2018-02-25T09:25:28.380Z,-4.57
2018-02-25T09:26:28.289Z,-4.54
2018-02-25T09:28:21.620Z,-4.54
2018-02-25T09:29:21.457Z,-4.52
2018-02-25T09:31:14.214Z,-4.56
2018-02-25T09:32:14.091Z,-4.42
2018-02-25T09:34:06.871Z,-4.42
2018-02-25T09:35:06.738Z,-4.42
2018-02-25T09:36:59.488Z,-4.39
2018-02-25T09:37:59.386Z,-4.39
2018-02-25T09:39:52.212Z,-4.21
2018-02-25T09:40:52.030Z,-4.14
2018-02-25T09:42:44.779Z,-4.14
2018-02-25T09:43:44.668Z,-4.07
2018-02-25T09:45:37.433Z,-4.02
2018-02-25T09:46:37.322Z,-4.02
2018-02-25T09:48:30.068Z,-3.91
2018-02-25T09:49:29.979Z,-3.99
2018-02-25T09:51:22.758Z,-3.85
2018-02-25T09:52:22.611Z,-3.69
2018-02-25T09:54:15.385Z,-3.69
2018-02-25T09:55:15.261Z,-3.62
2018-02-25T09:57:08.053Z,-3.62
2018-02-25T09:58:07.913Z,-3.59
2018-02-25T10:00:00.660Z,-3.52
2018-02-25T10:01:00.565Z,-3.54
2018-02-25T10:02:53.327Z,-3.45
2018-02-25T10:03:53.207Z,-3.45
2018-02-25T10:05:45.960Z,-3.23
2018-02-25T10:06:45.861Z,-3.20
2018-02-25T10:08:38.628Z,-3.10
2018-02-25T10:09:38.507Z,-3.16
2018-02-25T10:11:31.773Z,-3.20
2018-02-25T10:12:31.648Z,-3.38
2018-02-25T10:14:24.446Z,-3.62
2018-02-25T10:15:24.349Z,-3.63
2018-02-25T10:17:17.090Z,-3.49
2018-02-25T10:18:16.945Z,-3.45
2018-02-25T10:20:09.735Z,-3.33
2018-02-25T10:21:09.595Z,-3.29
2018-02-25T10:23:02.371Z,-3.20
2018-02-25T10:24:02.256Z,-3.23
2018-02-25T10:25:55.213Z,-3.27
2018-02-25T10:26:55.016Z,-3.18
2018-02-25T10:28:47.755Z,-3.05
2018-02-25T10:29:47.643Z,-2.98
2018-02-25T10:31:40.538Z,-2.88
2018-02-25T10:32:40.441Z,-2.84
2018-02-25T10:34:33.144Z,-2.72
2018-02-25T10:35:33.039Z,-2.64
2018-02-25T10:37:25.921Z,-2.51
2018-02-25T10:38:25.794Z,-2.37
2018-02-25T10:40:18.651Z,-2.34
2018-02-25T10:41:18.533Z,-2.46
2018-02-25T10:43:11.404Z,-2.51
2018-02-25T10:44:11.283Z,-2.45
2018-02-25T10:46:04.152Z,-2.59
2018-02-25T10:47:04.036Z,-2.64
2018-02-25T10:48:56.818Z,-2.66
2018-02-25T10:49:56.676Z,-2.46
2018-02-25T10:51:49.946Z,-2.34
2018-02-25T10:52:49.837Z,-2.12
2018-02-25T10:54:42.629Z,-1.86
2018-02-25T10:55:42.491Z,-1.91
2018-02-25T10:57:35.356Z,-2.06
2018-02-25T10:58:35.227Z,-2.00
2018-02-25T11:00:28.024Z,-1.86
2018-02-25T11:01:27.894Z,-2.21
2018-02-25T11:03:20.637Z,-2.55
2018-02-25T11:04:20.530Z,-2.45
2018-02-25T11:06:13.413Z,-2.37
2018-02-25T11:07:13.272Z,-2.26
2018-02-25T11:09:06.128Z,-1.91
2018-02-25T11:10:06.104Z,-1.82
2018-02-25T11:11:58.789Z,-1.82
2018-02-25T11:12:58.681Z,-1.78
2018-02-25T11:14:51.537Z,-1.70
2018-02-25T11:15:51.416Z,-1.62
2018-02-25T11:17:44.308Z,-1.55
2018-02-25T11:18:44.177Z,-1.39
2018-02-25T11:20:37.038Z,-1.65
2018-02-25T11:21:36.937Z,-1.72
2018-02-25T11:23:29.730Z,-1.59
2018-02-25T11:24:29.585Z,-1.59
2018-02-25T11:26:22.444Z,-1.57
2018-02-25T11:27:22.329Z,-1.52
2018-02-25T11:29:15.286Z,-1.82
2018-02-25T11:30:15.201Z,-1.83
2018-02-25T11:32:08.048Z,-1.85
2018-02-25T11:33:07.926Z,-2.14
2018-02-25T11:35:00.814Z,-2.01
2018-02-25T11:36:00.818Z,-2.15
2018-02-25T11:37:53.528Z,-1.88
2018-02-25T11:38:53.474Z,-1.65
2018-02-25T11:40:46.306Z,-1.43
2018-02-25T11:41:46.218Z,-1.19
2018-02-25T11:43:39.029Z,-1.10
2018-02-25T11:44:38.918Z,-0.98
2018-02-25T11:46:31.796Z,-0.97
2018-02-25T11:47:31.682Z,-0.82
2018-02-25T11:49:24.542Z,-0.78
2018-02-25T11:50:24.422Z,-0.81
2018-02-25T11:52:17.297Z,-0.97
2018-02-25T11:53:17.170Z,-1.16
2018-02-25T11:55:10.017Z,-1.41
2018-02-25T11:56:09.924Z,-1.55
2018-02-25T11:58:02.803Z,-1.52
2018-02-25T11:59:02.667Z,-1.39
2018-02-25T12:00:55.553Z,-1.51
2018-02-25T12:01:55.426Z,-1.46
2018-02-25T12:03:48.294Z,-1.25
2018-02-25T12:04:48.183Z,-1.21
2018-02-25T12:06:41.016Z,-1.23
2018-02-25T12:07:40.922Z,-1.36
2018-02-25T12:09:34.071Z,-1.34
2018-02-25T12:10:33.668Z,-1.47
2018-02-25T12:12:26.529Z,-1.96
2018-02-25T12:13:26.416Z,-2.03
2018-02-25T12:15:19.346Z,-1.90
2018-02-25T12:16:19.166Z,-1.80
2018-02-25T12:18:12.030Z,-1.43
2018-02-25T12:19:11.917Z,-1.59
2018-02-25T12:21:05.001Z,-1.67
2018-02-25T12:22:04.868Z,-1.73
2018-02-25T12:23:57.716Z,-2.06
2018-02-25T12:24:57.623Z,-2.18
2018-02-25T12:26:50.504Z,-2.22
2018-02-25T12:27:50.368Z,-2.19
2018-02-25T12:29:43.233Z,-1.90
2018-02-25T12:30:43.153Z,-1.86
2018-02-25T12:32:36.004Z,-1.54
2018-02-25T12:33:35.876Z,-1.49
2018-02-25T12:35:28.773Z,-1.36
2018-02-25T12:36:28.653Z,-1.22
2018-02-25T12:38:21.492Z,-1.33
2018-02-25T12:39:21.366Z,-1.37
2018-02-25T12:41:14.327Z,-1.58
2018-02-25T12:42:14.214Z,-1.79
2018-02-25T12:44:07.509Z,-1.82
2018-02-25T12:45:07.378Z,-1.91
2018-02-25T12:47:00.240Z,-2.33
2018-02-25T12:48:00.127Z,-2.35
2018-02-25T12:49:52.987Z,-2.24
2018-02-25T12:50:52.877Z,-2.08
2018-02-25T12:52:45.731Z,-1.98
2018-02-25T12:53:45.622Z,-1.94
2018-02-25T12:55:38.486Z,-1.80
2018-02-25T12:56:38.865Z,-1.82
2018-02-25T12:58:31.240Z,-1.90
2018-02-25T12:59:31.126Z,-2.03
2018-02-25T13:01:24.021Z,-1.75
2018-02-25T13:02:23.877Z,-1.69
2018-02-25T13:04:16.739Z,-1.78
2018-02-25T13:05:16.621Z,-2.16
2018-02-25T13:07:09.494Z,-2.26
2018-02-25T13:08:09.378Z,-2.04
2018-02-25T13:10:02.240Z,-1.98
2018-02-25T13:11:02.120Z,-2.03
2018-02-25T13:12:55.006Z,-2.00
2018-02-25T13:13:54.866Z,-2.01
2018-02-25T13:15:47.740Z,-1.96
2018-02-25T13:16:47.676Z,-1.90
2018-02-25T13:18:40.607Z,-1.82
2018-02-25T13:19:40.367Z,-1.88
2018-02-25T13:21:34.173Z,-1.64
2018-02-25T13:22:34.253Z,-1.18
2018-02-25T13:24:31.944Z,-1.03
2018-02-25T13:25:31.820Z,-1.10
2018-02-25T13:27:24.690Z,-1.34
2018-02-25T13:28:24.557Z,-1.72
2018-02-25T13:30:17.439Z,-1.82
2018-02-25T13:31:17.304Z,-1.88
2018-02-25T13:33:10.172Z,-1.91
2018-02-25T13:34:10.059Z,-2.04
2018-02-25T13:36:02.934Z,-1.90
2018-02-25T13:37:02.808Z,-1.69
2018-02-25T13:38:56.170Z,-1.40
2018-02-25T13:39:56.064Z,-1.41
2018-02-25T13:41:48.991Z,-1.70
2018-02-25T13:42:48.821Z,-1.80
2018-02-25T13:44:42.184Z,-1.86
2018-02-25T13:45:42.075Z,-2.01
2018-02-25T13:47:34.959Z,-2.06
2018-02-25T13:48:34.845Z,-1.78
2018-02-25T13:50:28.192Z,-1.69
2018-02-25T13:51:28.095Z,-1.76
2018-02-25T13:53:20.958Z,-1.70
2018-02-25T13:54:20.837Z,-1.80
2018-02-25T13:56:14.200Z,-2.08
2018-02-25T13:57:14.099Z,-2.16
2018-02-25T13:59:06.986Z,-2.03
2018-02-25T14:00:06.847Z,-2.06
2018-02-25T14:01:59.720Z,-2.24
2018-02-25T14:02:59.602Z,-2.15
2018-02-25T14:04:52.488Z,-1.91
2018-02-25T14:05:52.351Z,-1.85
2018-02-25T14:07:45.348Z,-1.65
2018-02-25T14:08:45.211Z,-1.58
2018-02-25T14:10:38.069Z,-1.79
2018-02-25T14:11:37.963Z,-1.96
2018-02-25T14:13:30.805Z,-2.35
2018-02-25T14:14:30.719Z,-2.43
2018-02-25T14:16:23.902Z,-2.45
2018-02-25T14:17:23.768Z,-2.54
2018-02-25T14:19:16.663Z,-2.58
2018-02-25T14:20:16.523Z,-2.67
2018-02-25T14:22:10.997Z,-2.73
2018-02-25T14:23:10.584Z,-2.82
2018-02-25T14:25:03.556Z,-2.87
2018-02-25T14:26:03.438Z,-2.82
2018-02-25T14:27:56.311Z,-2.77
2018-02-25T14:28:56.192Z,-2.88
2018-02-25T14:30:49.051Z,-2.82
2018-02-25T14:31:48.939Z,-2.82
2018-02-25T14:33:41.819Z,-2.90
2018-02-25T14:34:41.683Z,-2.84
2018-02-25T14:36:34.571Z,-2.72
2018-02-25T14:37:34.438Z,-2.74
2018-02-25T14:39:27.322Z,-2.92
2018-02-25T14:40:27.191Z,-2.84
2018-02-25T14:42:20.048Z,-2.73
2018-02-25T14:43:19.930Z,-2.73
2018-02-25T14:45:13.312Z,-2.85
2018-02-25T14:46:13.195Z,-2.91
2018-02-25T14:48:06.055Z,-2.88
2018-02-25T14:49:05.961Z,-2.82
2018-02-25T14:50:58.842Z,-2.70
2018-02-25T14:51:58.698Z,-2.87
2018-02-25T14:53:51.563Z,-2.82
2018-02-25T14:54:51.454Z,-2.69
2018-02-25T14:56:44.351Z,-2.59
2018-02-25T14:57:44.196Z,-2.54
2018-02-25T14:59:37.069Z,-2.54
2018-02-25T15:00:36.949Z,-2.46
2018-02-25T15:02:29.824Z,-2.43
2018-02-25T15:03:29.702Z,-2.45
2018-02-25T15:05:22.590Z,-2.37
2018-02-25T15:06:22.452Z,-2.33
2018-02-25T15:08:15.444Z,-2.43
2018-02-25T15:09:15.315Z,-2.55
2018-02-25T15:11:08.881Z,-2.69
2018-02-25T15:12:08.756Z,-2.74
2018-02-25T15:14:01.921Z,-2.69
2018-02-25T15:15:01.524Z,-2.64
2018-02-25T15:16:54.375Z,-2.70
2018-02-25T15:17:54.281Z,-2.74
2018-02-25T15:19:47.128Z,-2.61
2018-02-25T15:20:47.028Z,-2.61
2018-02-25T15:22:40.478Z,-2.59
2018-02-25T15:23:40.280Z,-2.55
2018-02-25T15:25:33.158Z,-2.61
2018-02-25T15:26:33.102Z,-2.59
2018-02-25T15:28:25.930Z,-2.58
2018-02-25T15:29:25.777Z,-2.61
2018-02-25T15:31:18.681Z,-2.79
2018-02-25T15:32:18.547Z,-2.80
2018-02-25T15:34:12.463Z,-2.85
2018-02-25T15:35:12.310Z,-2.73
2018-02-25T15:37:05.168Z,-2.72
2018-02-25T15:38:05.045Z,-2.58
2018-02-25T15:39:57.898Z,-2.56
2018-02-25T15:40:57.793Z,-2.63
2018-02-25T15:42:50.680Z,-2.46
2018-02-25T15:43:50.545Z,-2.52
2018-02-25T15:45:43.402Z,-2.59
2018-02-25T15:46:43.302Z,-2.52
2018-02-25T15:48:36.387Z,-2.55
2018-02-25T15:49:36.293Z,-2.55
2018-02-25T15:51:29.112Z,-2.73
2018-02-25T15:52:29.009Z,-2.92
2018-02-25T15:54:21.864Z,-3.08
2018-02-25T15:55:21.749Z,-3.18
2018-02-25T15:57:14.612Z,-3.18
2018-02-25T15:58:14.501Z,-3.21
2018-02-25T16:00:07.377Z,-3.20
2018-02-25T16:01:07.258Z,-3.13
2018-02-25T16:03:01.065Z,-3.18
2018-02-25T16:04:00.918Z,-3.24
2018-02-25T16:05:53.797Z,-3.36
2018-02-25T16:06:53.663Z,-3.41
2018-02-25T16:08:46.530Z,-3.38
2018-02-25T16:09:46.416Z,-3.18
2018-02-25T16:11:39.376Z,-3.15
2018-02-25T16:12:39.186Z,-3.20
2018-02-25T16:14:32.101Z,-3.18
2018-02-25T16:15:31.923Z,-3.27
2018-02-25T16:17:24.821Z,-3.20
2018-02-25T16:18:24.704Z,-3.23
2018-02-25T16:20:17.522Z,-3.29
2018-02-25T16:21:17.416Z,-3.21
2018-02-25T16:23:10.288Z,-3.31
2018-02-25T16:24:10.187Z,-3.36
2018-02-25T16:26:03.031Z,-3.48
2018-02-25T16:27:02.907Z,-3.49
2018-02-25T16:28:55.788Z,-3.38
2018-02-25T16:29:55.658Z,-3.48
2018-02-25T16:31:49.035Z,-3.48
2018-02-25T16:32:48.928Z,-3.52
2018-02-25T16:34:42.325Z,-3.42
2018-02-25T16:35:42.188Z,-3.51
2018-02-25T16:37:35.053Z,-3.48
2018-02-25T16:38:34.937Z,-3.57
2018-02-25T16:40:27.857Z,-3.49
2018-02-25T16:41:27.705Z,-3.51
2018-02-25T16:43:20.536Z,-3.57
2018-02-25T16:44:20.440Z,-3.63
2018-02-25T16:46:13.313Z,-3.60
2018-02-25T16:47:13.192Z,-3.65
2018-02-25T16:49:06.048Z,-3.65
2018-02-25T16:50:05.937Z,-3.63
2018-02-25T16:51:59.262Z,-3.70
2018-02-25T16:52:58.679Z,-3.74
2018-02-25T16:54:51.544Z,-3.72
2018-02-25T16:55:51.434Z,-3.79
2018-02-25T16:57:44.524Z,-3.77
2018-02-25T16:58:44.400Z,-3.84
2018-02-25T17:00:37.290Z,-3.72
2018-02-25T17:01:37.140Z,-3.89
2018-02-25T17:03:30.033Z,-3.81
2018-02-25T17:04:29.891Z,-3.84
2018-02-25T17:06:22.742Z,-3.89
2018-02-25T17:07:22.643Z,-4.00
2018-02-25T17:09:15.557Z,-3.96
2018-02-25T17:10:15.566Z,-4.00
2018-02-25T17:12:08.651Z,-3.99
2018-02-25T17:13:08.542Z,-4.10
2018-02-25T17:15:01.473Z,-4.07
2018-02-25T17:16:01.301Z,-4.14
2018-02-25T17:17:54.197Z,-4.05
2018-02-25T17:18:54.130Z,-4.10
2018-02-25T17:20:46.949Z,-4.14
2018-02-25T17:21:46.806Z,-4.14
2018-02-25T17:23:42.190Z,-4.03
2018-02-25T17:24:41.084Z,-4.12
2018-02-25T17:26:34.914Z,-4.10
2018-02-25T17:27:34.795Z,-4.12
2018-02-25T17:29:27.731Z,-4.14
2018-02-25T17:30:27.619Z,-4.17
2018-02-25T17:32:20.565Z,-4.15
2018-02-25T17:33:20.427Z,-4.14
2018-02-25T17:35:13.804Z,-4.02
2018-02-25T17:36:13.112Z,-4.12
2018-02-25T17:38:06.021Z,-4.03
2018-02-25T17:39:05.848Z,-4.10
2018-02-25T17:40:58.739Z,-4.15
2018-02-25T17:41:58.598Z,-4.12
2018-02-25T17:43:51.494Z,-4.14
2018-02-25T17:44:51.359Z,-4.10
2018-02-25T17:46:44.248Z,-4.10
2018-02-25T17:47:44.100Z,-4.12
2018-02-25T17:49:36.989Z,-4.07
2018-02-25T17:50:36.848Z,-4.07
2018-02-25T17:52:29.702Z,-4.18
2018-02-25T17:53:29.600Z,-4.20
2018-02-25T17:55:24.521Z,-4.10
2018-02-25T17:56:22.960Z,-4.14
2018-02-25T17:58:15.824Z,-4.14
2018-02-25T17:59:15.719Z,-4.07
2018-02-25T18:01:08.913Z,-4.14
2018-02-25T18:02:08.781Z,-4.07
2018-02-25T18:04:01.634Z,-4.09
2018-02-25T18:05:01.522Z,-4.05
2018-02-25T18:06:54.298Z,-3.97
2018-02-25T18:07:54.189Z,-3.99
2018-02-25T18:09:47.184Z,-4.06
2018-02-25T18:10:47.015Z,-3.99
2018-02-25T18:12:39.908Z,-4.14
2018-02-25T18:13:39.771Z,-4.07
2018-02-25T18:15:32.788Z,-4.10
2018-02-25T18:16:32.513Z,-4.17
2018-02-25T18:18:25.384Z,-4.25
2018-02-25T18:19:25.274Z,-4.25
2018-02-25T18:21:18.122Z,-4.18
2018-02-25T18:22:18.014Z,-4.18
2018-02-25T18:24:11.070Z,-4.20
2018-02-25T18:25:11.338Z,-4.17
2018-02-25T18:27:03.636Z,-4.23
2018-02-25T18:28:03.663Z,-4.21
2018-02-25T18:29:56.396Z,-4.15
2018-02-25T18:30:56.276Z,-4.12
2018-02-25T18:32:49.133Z,-4.14